Terminal Aerodrome Forecast
Issued by NWS Cleveland, OH

Home | Current Version | Previous Version | Graphics & Text | Print | Product List | Glossary Off
Versions: 1 2 3 4 5 6 7 8 9 10 11 12 13 14 15 16 17

000
FTUS41 KCLE 231729
TAFMFD
TAF
KMFD 231729Z 2318/2418 22010KT P6SM -SHRA OVC035
      TEMPO 2318/2321 3SM SHRA OVC015
     FM232100 23012KT P6SM OVC050
      TEMPO 2321/2323 -SHRA OVC025
     FM232300 28010KT P6SM OVC015
     FM240400 29006KT P6SM BKN035
     FM240700 28006KT P6SM SCT035=

USA.gov is the U.S. government's official web portal to all federal, state and local government web resources and services.